sensor_id;sensor_type;location;lat;lon;timestamp;pressure;altitude;pressure_sealevel;temperature;humidity
62544;BME280;48597;49.030;1.822;2023-04-20T00:01:57;100914.03;;;19.87;42.55
62544;BME280;48597;49.030;1.822;2023-04-20T00:04:27;100920.22;;;19.85;42.61
62544;BME280;48597;49.030;1.822;2023-04-20T00:06:53;100916.56;;;19.85;42.57
62544;BME280;48597;49.030;1.822;2023-04-20T00:09:21;100912.09;;;19.84;42.55
62544;BME280;48597;49.030;1.822;2023-04-20T00:11:47;100903.16;;;19.82;42.56
62544;BME280;48597;49.030;1.822;2023-04-20T00:14:13;100906.03;;;19.82;42.49
62544;BME280;48597;49.030;1.822;2023-04-20T00:16:41;100909.69;;;19.82;42.25
62544;BME280;48597;49.030;1.822;2023-04-20T00:19:07;100905.22;;;19.81;42.56
62544;BME280;48597;49.030;1.822;2023-04-20T00:21:33;100910.94;;;19.81;42.51
62544;BME280;48597;49.030;1.822;2023-04-20T00:23:58;100903.59;;;19.80;42.45
62544;BME280;48597;49.030;1.822;2023-04-20T00:26:24;100899.13;;;19.79;42.50
62544;BME280;48597;49.030;1.822;2023-04-20T00:28:50;100898.34;;;19.79;42.61
62544;BME280;48597;49.030;1.822;2023-04-20T00:31:16;100891.00;;;19.78;42.58
62544;BME280;48597;49.030;1.822;2023-04-20T00:33:41;100893.84;;;19.78;42.49
62544;BME280;48597;49.030;1.822;2023-04-20T00:36:07;100891.00;;;19.78;42.60
62544;BME280;48597;49.030;1.822;2023-04-20T00:38:32;100885.72;;;19.76;42.56
62544;BME280;48597;49.030;1.822;2023-04-20T00:40:58;100887.78;;;19.76;42.68
62544;BME280;48597;49.030;1.822;2023-04-20T00:43:23;100887.78;;;19.76;42.66
62544;BME280;48597;49.030;1.822;2023-04-20T00:45:49;100884.56;;;19.74;42.56
62544;BME280;48597;49.030;1.822;2023-04-20T00:48:16;100873.13;;;19.74;42.61
62544;BME280;48597;49.030;1.822;2023-04-20T00:50:42;100881.72;;;19.74;42.75
62544;BME280;48597;49.030;1.822;2023-04-20T00:53:07;100872.34;;;19.73;42.63
62544;BME280;48597;49.030;1.822;2023-04-20T00:55:36;100867.06;;;19.72;42.71
62544;BME280;48597;49.030;1.822;2023-04-20T00:58:01;100861.34;;;19.72;42.73
62544;BME280;48597;49.030;1.822;2023-04-20T01:00:27;100864.66;;;19.70;42.65
62544;BME280;48597;49.030;1.822;2023-04-20T01:02:52;100861.00;;;19.70;42.64
62544;BME280;48597;49.030;1.822;2023-04-20T01:05:18;100856.53;;;19.69;42.68
62544;BME280;48597;49.030;1.822;2023-04-20T01:07:44;100857.78;;;19.68;42.73
62544;BME280;48597;49.030;1.822;2023-04-20T01:10:10;100856.97;;;19.67;42.68
62544;BME280;48597;49.030;1.822;2023-04-20T01:12:35;100854.13;;;19.67;42.76
62544;BME280;48597;49.030;1.822;2023-04-20T01:15:02;100852.50;;;19.66;42.74
62544;BME280;48597;49.030;1.822;2023-04-20T01:17:28;100853.75;;;19.65;42.53
62544;BME280;48597;49.030;1.822;2023-04-20T01:19:53;100853.75;;;19.65;42.74
62544;BME280;48597;49.030;1.822;2023-04-20T01:22:19;100853.75;;;19.65;42.62
62544;BME280;48597;49.030;1.822;2023-04-20T01:24:45;100850.09;;;19.65;42.57
62544;BME280;48597;49.030;1.822;2023-04-20T01:27:14;100844.81;;;19.63;42.67
62544;BME280;48597;49.030;1.822;2023-04-20T01:29:41;100841.97;;;19.63;42.71
62544;BME280;48597;49.030;1.822;2023-04-20T01:32:07;100839.56;;;19.61;42.68
62544;BME280;48597;49.030;1.822;2023-04-20T01:34:32;100840.34;;;19.62;42.64
62544;BME280;48597;49.030;1.822;2023-04-20T01:36:58;100823.66;;;19.60;42.70
62544;BME280;48597;49.030;1.822;2023-04-20T01:39:24;100823.66;;;19.60;42.60
62544;BME280;48597;49.030;1.822;2023-04-20T01:41:49;100822.06;;;19.59;42.65
62544;BME280;48597;49.030;1.822;2023-04-20T01:44:15;100814.75;;;19.58;42.64
62544;BME280;48597;49.030;1.822;2023-04-20T01:46:41;100819.66;;;19.58;42.66
62544;BME280;48597;49.030;1.822;2023-04-20T01:49:07;100812.34;;;19.57;42.71
62544;BME280;48597;49.030;1.822;2023-04-20T01:51:35;100807.88;;;19.56;42.71
62544;BME280;48597;49.030;1.822;2023-04-20T01:54:02;100810.72;;;19.56;42.59
62544;BME280;48597;49.030;1.822;2023-04-20T01:56:27;100813.59;;;19.56;42.57
62544;BME280;48597;49.030;1.822;2023-04-20T01:58:53;100812.78;;;19.55;42.46
62544;BME280;48597;49.030;1.822;2023-04-20T02:01:19;100813.59;;;19.56;42.47
62544;BME280;48597;49.030;1.822;2023-04-20T02:03:44;100818.50;;;19.55;42.46
62544;BME280;48597;49.030;1.822;2023-04-20T02:06:10;100809.56;;;19.53;42.48
62544;BME280;48597;49.030;1.822;2023-04-20T02:08:36;100809.13;;;19.55;42.51
62544;BME280;48597;49.030;1.822;2023-04-20T02:11:01;100816.06;;;19.54;42.52
62544;BME280;48597;49.030;1.822;2023-04-20T02:13:28;100811.16;;;19.54;42.48
62544;BME280;48597;49.030;1.822;2023-04-20T02:15:53;100816.88;;;19.54;42.44
62544;BME280;48597;49.030;1.822;2023-04-20T02:18:19;100811.97;;;19.55;42.48
62544;BME280;48597;49.030;1.822;2023-04-20T02:20:45;100812.78;;;19.55;42.55
62544;BME280;48597;49.030;1.822;2023-04-20T02:23:11;100818.50;;;19.55;42.41
62544;BME280;48597;49.030;1.822;2023-04-20T02:25:36;100822.16;;;19.56;42.40
62544;BME280;48597;49.030;1.822;2023-04-20T02:28:02;100819.28;;;19.56;42.24
62544;BME280;48597;49.030;1.822;2023-04-20T02:30:28;100823.75;;;19.57;42.42
62544;BME280;48597;49.030;1.822;2023-04-20T02:32:53;100821.72;;;19.57;42.40
62544;BME280;48597;49.030;1.822;2023-04-20T02:35:18;100828.22;;;19.58;42.29
62544;BME280;48597;49.030;1.822;2023-04-20T02:37:44;100826.63;;;19.57;42.53
62544;BME280;48597;49.030;1.822;2023-04-20T02:40:11;100830.66;;;19.59;42.30
62544;BME280;48597;49.030;1.822;2023-04-20T02:42:37;100836.38;;;19.59;42.37
62544;BME280;48597;49.030;1.822;2023-04-20T02:45:02;100839.22;;;19.59;42.53
62544;BME280;48597;49.030;1.822;2023-04-20T02:47:28;100839.56;;;19.61;42.33
62544;BME280;48597;49.030;1.822;2023-04-20T02:49:53;100830.97;;;19.61;42.43
62544;BME280;48597;49.030;1.822;2023-04-20T02:52:19;100828.91;;;19.62;42.38
62544;BME280;48597;49.030;1.822;2023-04-20T02:54:44;100831.34;;;19.63;42.38
62544;BME280;48597;49.030;1.822;2023-04-20T02:57:10;100826.41;;;19.64;42.48
62544;BME280;48597;49.030;1.822;2023-04-20T02:59:36;100836.16;;;19.67;42.43
62544;BME280;48597;49.030;1.822;2023-04-20T03:02:02;100834.91;;;19.68;42.34
62544;BME280;48597;49.030;1.822;2023-04-20T03:04:27;100832.84;;;19.68;42.42
62544;BME280;48597;49.030;1.822;2023-04-20T03:06:55;100838.13;;;19.70;42.23
62544;BME280;48597;49.030;1.822;2023-04-20T03:09:21;100842.59;;;19.71;42.49
62544;BME280;48597;49.030;1.822;2023-04-20T03:11:46;100840.53;;;19.71;42.46
62544;BME280;48597;49.030;1.822;2023-04-20T03:14:12;100848.66;;;19.73;42.43
62544;BME280;48597;49.030;1.822;2023-04-20T03:16:38;100842.47;;;19.74;42.32
62544;BME280;48597;49.030;1.822;2023-04-20T03:19:03;100837.56;;;19.75;42.25
62544;BME280;48597;49.030;1.822;2023-04-20T03:21:28;100841.56;;;19.77;42.23
62544;BME280;48597;49.030;1.822;2023-04-20T03:23:54;100837.47;;;19.78;42.16
62544;BME280;48597;49.030;1.822;2023-04-20T03:26:19;100837.00;;;19.80;42.27
62544;BME280;48597;49.030;1.822;2023-04-20T03:28:45;100832.09;;;19.80;42.29
62544;BME280;48597;49.030;1.822;2023-04-20T03:31:10;100832.91;;;19.81;42.21
62544;BME280;48597;49.030;1.822;2023-04-20T03:33:36;100829.59;;;19.82;42.25
62544;BME280;48597;49.030;1.822;2023-04-20T03:36:01;100829.16;;;19.84;42.14
62544;BME280;48597;49.030;1.822;2023-04-20T03:38:29;100830.75;;;19.85;42.20
62544;BME280;48597;49.030;1.822;2023-04-20T03:40:54;100828.22;;;19.87;42.24
62544;BME280;48597;49.030;1.822;2023-04-20T03:43:20;100831.09;;;19.87;42.10
62544;BME280;48597;49.030;1.822;2023-04-20T03:45:45;100830.63;;;19.88;42.11
62544;BME280;48597;49.030;1.822;2023-04-20T03:48:11;100825.72;;;19.89;42.02
62544;BME280;48597;49.030;1.822;2023-04-20T03:50:36;100825.72;;;19.89;42.07
62544;BME280;48597;49.030;1.822;2023-04-20T03:53:01;100819.53;;;19.90;42.00
62544;BME280;48597;49.030;1.822;2023-04-20T03:55:27;100824.81;;;19.92;41.84
62544;BME280;48597;49.030;1.822;2023-04-20T03:57:52;100827.69;;;19.92;41.95
62544;BME280;48597;49.030;1.822;2023-04-20T04:00:18;100830.09;;;19.93;42.00
62544;BME280;48597;49.030;1.822;2023-04-20T04:02:44;100834.56;;;19.94;41.89
62544;BME280;48597;49.030;1.822;2023-04-20T04:05:09;100833.75;;;19.94;41.77
62544;BME280;48597;49.030;1.822;2023-04-20T04:07:35;100833.75;;;19.94;41.88
62544;BME280;48597;49.030;1.822;2023-04-20T04:10:00;100831.25;;;19.96;41.86
62544;BME280;48597;49.030;1.822;2023-04-20T04:12:28;100834.56;;;19.94;41.87
62544;BME280;48597;49.030;1.822;2023-04-20T04:14:53;100842.69;;;19.96;41.79
62544;BME280;48597;49.030;1.822;2023-04-20T04:17:19;100852.09;;;19.96;41.87
62544;BME280;48597;49.030;1.822;2023-04-20T04:19:44;100846.34;;;19.96;41.79
62544;BME280;48597;49.030;1.822;2023-04-20T04:22:10;100850.03;;;19.97;41.92
62544;BME280;48597;49.030;1.822;2023-04-20T04:24:35;100846.34;;;19.96;41.72
62544;BME280;48597;49.030;1.822;2023-04-20T04:27:03;100854.94;;;19.96;41.83
62544;BME280;48597;49.030;1.822;2023-04-20T04:29:29;100854.94;;;19.96;42.00
62544;BME280;48597;49.030;1.822;2023-04-20T04:31:54;100857.00;;;19.96;41.75
62544;BME280;48597;49.030;1.822;2023-04-20T04:34:22;100859.84;;;19.96;41.84
62544;BME280;48597;49.030;1.822;2023-04-20T04:36:48;100858.59;;;19.97;41.71
62544;BME280;48597;49.030;1.822;2023-04-20T04:39:14;100870.06;;;19.97;41.76
62544;BME280;48597;49.030;1.822;2023-04-20T04:41:46;100873.34;;;19.95;41.67
62544;BME280;48597;49.030;1.822;2023-04-20T04:44:12;100867.63;;;19.95;41.93
62544;BME280;48597;49.030;1.822;2023-04-20T04:46:37;100866.84;;;19.95;41.84
62544;BME280;48597;49.030;1.822;2023-04-20T04:49:02;100859.50;;;19.94;41.65
62544;BME280;48597;49.030;1.822;2023-04-20T04:51:28;100868.88;;;19.94;41.58
62544;BME280;48597;49.030;1.822;2023-04-20T04:53:54;100883.63;;;19.93;41.69
62544;BME280;48597;49.030;1.822;2023-04-20T04:56:21;100877.91;;;19.93;41.57
62544;BME280;48597;49.030;1.822;2023-04-20T04:58:47;100886.50;;;19.93;41.80
62544;BME280;48597;49.030;1.822;2023-04-20T05:01:13;100884.91;;;19.92;41.50
62544;BME280;48597;49.030;1.822;2023-04-20T05:03:38;100879.97;;;19.92;41.55
62544;BME280;48597;49.030;1.822;2023-04-20T05:06:03;100878.38;;;19.91;41.61
62544;BME280;48597;49.030;1.822;2023-04-20T05:08:29;100891.88;;;19.91;41.45
62544;BME280;48597;49.030;1.822;2023-04-20T05:10:56;100897.59;;;19.91;41.70
62544;BME280;48597;49.030;1.822;2023-04-20T05:13:21;100894.38;;;19.89;41.59
62544;BME280;48597;49.030;1.822;2023-04-20T05:15:46;100893.56;;;19.88;41.75
62544;BME280;48597;49.030;1.822;2023-04-20T05:18:12;100884.19;;;19.88;41.58
62544;BME280;48597;49.030;1.822;2023-04-20T05:20:37;100884.19;;;19.88;41.54
62544;BME280;48597;49.030;1.822;2023-04-20T05:23:03;100893.22;;;19.86;41.43
62544;BME280;48597;49.030;1.822;2023-04-20T05:25:29;100890.81;;;19.85;41.47
62544;BME280;48597;49.030;1.822;2023-04-20T05:27:55;100896.53;;;19.85;41.63
62544;BME280;48597;49.030;1.822;2023-04-20T05:30:20;100897.78;;;19.84;41.46
62544;BME280;48597;49.030;1.822;2023-04-20T05:32:46;100896.19;;;19.83;41.51
62544;BME280;48597;49.030;1.822;2023-04-20T05:35:12;100893.31;;;19.83;41.39
62544;BME280;48597;49.030;1.822;2023-04-20T05:37:37;100901.09;;;19.82;41.52
62544;BME280;48597;49.030;1.822;2023-04-20T05:40:03;100906.03;;;19.82;41.55
62544;BME280;48597;49.030;1.822;2023-04-20T05:42:29;100898.69;;;19.81;41.54
62544;BME280;48597;49.030;1.822;2023-04-20T05:44:54;100900.75;;;19.80;41.48
62544;BME280;48597;49.030;1.822;2023-04-20T05:47:20;100899.94;;;19.80;41.49
62544;BME280;48597;49.030;1.822;2023-04-20T05:49:45;100894.66;;;19.78;41.48
62544;BME280;48597;49.030;1.822;2023-04-20T05:52:11;100900.38;;;19.78;41.47
62544;BME280;48597;49.030;1.822;2023-04-20T05:54:36;100901.63;;;19.77;41.32
62544;BME280;48597;49.030;1.822;2023-04-20T05:57:02;100893.84;;;19.78;41.33
62544;BME280;48597;49.030;1.822;2023-04-20T05:59:29;100908.59;;;19.76;41.35
62544;BME280;48597;49.030;1.822;2023-04-20T06:01:55;100902.88;;;19.76;41.19
62544;BME280;48597;49.030;1.822;2023-04-20T06:04:21;100904.13;;;19.75;41.41
62544;BME280;48597;49.030;1.822;2023-04-20T06:06:46;100901.28;;;19.75;41.35
62544;BME280;48597;49.030;1.822;2023-04-20T06:09:11;100909.06;;;19.75;41.19
62544;BME280;48597;49.030;1.822;2023-04-20T06:11:37;100897.28;;;19.73;41.44
62544;BME280;48597;49.030;1.822;2023-04-20T06:14:02;100901.72;;;19.74;41.29
62544;BME280;48597;49.030;1.822;2023-04-20T06:16:27;100898.09;;;19.73;41.25
62544;BME280;48597;49.030;1.822;2023-04-20T06:18:53;100898.53;;;19.72;41.33
62544;BME280;48597;49.030;1.822;2023-04-20T06:21:18;100902.19;;;19.72;41.25
62544;BME280;48597;49.030;1.822;2023-04-20T06:23:44;100904.25;;;19.72;41.33
62544;BME280;48597;49.030;1.822;2023-04-20T06:26:09;100905.50;;;19.71;41.15
62544;BME280;48597;49.030;1.822;2023-04-20T06:28:36;100896.13;;;19.70;41.33
62544;BME280;48597;49.030;1.822;2023-04-20T06:31:02;100899.78;;;19.71;41.34
62544;BME280;48597;49.030;1.822;2023-04-20T06:33:28;100898.19;;;19.70;41.28
62544;BME280;48597;49.030;1.822;2023-04-20T06:35:56;100905.16;;;19.69;41.36
62544;BME280;48597;49.030;1.822;2023-04-20T06:38:22;100905.94;;;19.69;41.17
62544;BME280;48597;49.030;1.822;2023-04-20T06:40:49;100903.91;;;19.70;41.31
62544;BME280;48597;49.030;1.822;2023-04-20T06:43:14;100902.28;;;19.69;41.23
62544;BME280;48597;49.030;1.822;2023-04-20T06:45:40;100903.53;;;19.68;41.36
62544;BME280;48597;49.030;1.822;2023-04-20T06:48:05;100904.34;;;19.68;41.40
62544;BME280;48597;49.030;1.822;2023-04-20T06:50:31;100903.53;;;19.68;41.25
62544;BME280;48597;49.030;1.822;2023-04-20T06:52:56;100899.88;;;19.67;41.33
62544;BME280;48597;49.030;1.822;2023-04-20T06:55:22;100903.53;;;19.68;41.50
62544;BME280;48597;49.030;1.822;2023-04-20T06:57:47;100903.53;;;19.68;41.42
62544;BME280;48597;49.030;1.822;2023-04-20T07:00:13;100903.97;;;19.66;41.50
62544;BME280;48597;49.030;1.822;2023-04-20T07:02:48;100899.88;;;19.67;41.44
62544;BME280;48597;49.030;1.822;2023-04-20T07:05:14;100904.78;;;19.67;41.40
62544;BME280;48597;49.030;1.822;2023-04-20T07:07:40;100903.97;;;19.66;41.37
62544;BME280;48597;49.030;1.822;2023-04-20T07:10:11;100908.44;;;19.67;41.36
62544;BME280;48597;49.030;1.822;2023-04-20T07:12:36;100910.59;;;19.63;41.05
62544;BME280;48597;49.030;1.822;2023-04-20T07:15:03;100906.03;;;19.66;41.32
62544;BME280;48597;49.030;1.822;2023-04-20T07:17:29;100908.44;;;19.67;41.29
62544;BME280;48597;49.030;1.822;2023-04-20T07:19:56;100903.19;;;19.66;41.25
62544;BME280;48597;49.030;1.822;2023-04-20T07:22:23;100902.72;;;19.67;41.23
62544;BME280;48597;49.030;1.822;2023-04-20T07:24:49;100902.72;;;19.67;41.29
62544;BME280;48597;49.030;1.822;2023-04-20T07:27:14;100901.94;;;19.67;41.21
62544;BME280;48597;49.030;1.822;2023-04-20T07:29:40;100910.50;;;19.67;41.24
62544;BME280;48597;49.030;1.822;2023-04-20T07:32:05;100914.16;;;19.67;41.15
62544;BME280;48597;49.030;1.822;2023-04-20T07:34:30;100909.25;;;19.68;41.32
62544;BME280;48597;49.030;1.822;2023-04-20T07:36:56;100913.38;;;19.67;41.04
62544;BME280;48597;49.030;1.822;2023-04-20T07:39:21;100902.72;;;19.67;40.97
62544;BME280;48597;49.030;1.822;2023-04-20T07:41:49;100908.44;;;19.67;41.22
62544;BME280;48597;49.030;1.822;2023-04-20T07:44:14;100907.66;;;19.67;41.09
62544;BME280;48597;49.030;1.822;2023-04-20T07:46:40;100897.00;;;19.67;41.04
62544;BME280;48597;49.030;1.822;2023-04-20T07:49:05;100903.53;;;19.68;41.15
62544;BME280;48597;49.030;1.822;2023-04-20T07:51:31;100902.28;;;19.69;41.20
62544;BME280;48597;49.030;1.822;2023-04-20T07:53:58;100894.50;;;19.69;41.14
62544;BME280;48597;49.030;1.822;2023-04-20T07:56:24;100903.91;;;19.70;41.20
62544;BME280;48597;49.030;1.822;2023-04-20T07:58:50;100903.09;;;19.69;41.21
62544;BME280;48597;49.030;1.822;2023-04-20T08:01:15;100896.94;;;19.71;41.11
62544;BME280;48597;49.030;1.822;2023-04-20T08:03:40;100897.38;;;19.69;41.00
62544;BME280;48597;49.030;1.822;2023-04-20T08:06:07;100886.75;;;19.70;40.87
62544;BME280;48597;49.030;1.822;2023-04-20T08:08:33;100891.22;;;19.71;40.92
62544;BME280;48597;49.030;1.822;2023-04-20T08:10:58;100893.63;;;19.72;40.96
62544;BME280;48597;49.030;1.822;2023-04-20T08:13:25;100883.00;;;19.73;40.96
62544;BME280;48597;49.030;1.822;2023-04-20T08:15:51;100884.56;;;19.74;40.98
62544;BME280;48597;49.030;1.822;2023-04-20T08:18:17;100886.66;;;19.73;41.03
62544;BME280;48597;49.030;1.822;2023-04-20T08:20:42;100876.78;;;19.74;41.22
62544;BME280;48597;49.030;1.822;2023-04-20T08:23:10;100881.25;;;19.75;40.96
62544;BME280;48597;49.030;1.822;2023-04-20T08:25:37;100880.00;;;19.76;41.00
62544;BME280;48597;49.030;1.822;2023-04-20T08:28:03;100877.94;;;19.77;41.08
62544;BME280;48597;49.030;1.822;2023-04-20T08:30:30;100881.63;;;19.77;41.13
62544;BME280;48597;49.030;1.822;2023-04-20T08:32:55;100878.31;;;19.79;41.00
62544;BME280;48597;49.030;1.822;2023-04-20T08:35:21;100876.25;;;19.79;41.00
62544;BME280;48597;49.030;1.822;2023-04-20T08:37:47;100876.63;;;19.81;41.19
62544;BME280;48597;49.030;1.822;2023-04-20T08:40:16;100866.34;;;19.84;41.04
62544;BME280;48597;49.030;1.822;2023-04-20T08:42:44;100872.06;;;19.84;41.02
62544;BME280;48597;49.030;1.822;2023-04-20T08:45:09;100869.56;;;19.86;40.87
62544;BME280;48597;49.030;1.822;2023-04-20T08:47:36;100862.53;;;19.87;41.08
62544;BME280;48597;49.030;1.822;2023-04-20T08:50:03;100859.25;;;19.88;41.10
62544;BME280;48597;49.030;1.822;2023-04-20T08:52:29;100864.16;;;19.88;40.83
62544;BME280;48597;49.030;1.822;2023-04-20T08:54:54;100855.13;;;19.89;41.32
62544;BME280;48597;49.030;1.822;2023-04-20T08:57:20;100859.25;;;19.88;41.24
62544;BME280;48597;49.030;1.822;2023-04-20T08:59:45;100850.22;;;19.90;41.38
62544;BME280;48597;49.030;1.822;2023-04-20T09:02:11;100843.69;;;19.89;41.32
62544;BME280;48597;49.030;1.822;2023-04-20T09:04:38;100851.00;;;19.90;41.20
62544;BME280;48597;49.030;1.822;2023-04-20T09:07:04;100848.97;;;19.91;41.24
62544;BME280;48597;49.030;1.822;2023-04-20T09:09:30;100852.63;;;19.91;41.15
62544;BME280;48597;49.030;1.822;2023-04-20T09:12:08;100859.94;;;19.92;41.15
62544;BME280;48597;49.030;1.822;2023-04-20T09:14:45;100856.63;;;19.94;41.25
62544;BME280;48597;49.030;1.822;2023-04-20T09:17:12;100860.75;;;19.93;41.22
62544;BME280;48597;49.030;1.822;2023-04-20T09:19:38;100848.88;;;19.94;41.14
62544;BME280;48597;49.030;1.822;2023-04-20T09:22:04;100846.00;;;19.94;41.19
62544;BME280;48597;49.030;1.822;2023-04-20T09:24:32;100854.13;;;19.96;41.16
62544;BME280;48597;49.030;1.822;2023-04-20T09:26:59;100846.34;;;19.96;41.18
62544;BME280;48597;49.030;1.822;2023-04-20T09:29:26;100839.84;;;19.96;41.18
62544;BME280;48597;49.030;1.822;2023-04-20T09:31:52;100850.81;;;19.97;41.16
62544;BME280;48597;49.030;1.822;2023-04-20T09:34:18;100847.16;;;19.97;41.10
62544;BME280;48597;49.030;1.822;2023-04-20T09:36:46;100840.19;;;19.98;41.04
62544;BME280;48597;49.030;1.822;2023-04-20T09:39:13;100844.66;;;19.99;41.04
62544;BME280;48597;49.030;1.822;2023-04-20T09:41:40;100824.63;;;19.99;40.85
62544;BME280;48597;49.030;1.822;2023-04-20T09:44:07;100820.97;;;19.98;40.91
62544;BME280;48597;49.030;1.822;2023-04-20T09:46:34;100818.91;;;19.99;40.89
62544;BME280;48597;49.030;1.822;2023-04-20T09:49:02;100813.97;;;19.99;40.86
62544;BME280;48597;49.030;1.822;2023-04-20T09:51:28;100817.63;;;20.00;40.98
62544;BME280;48597;49.030;1.822;2023-04-20T09:54:00;100812.72;;;20.01;40.93
62544;BME280;48597;49.030;1.822;2023-04-20T09:56:27;100809.03;;;20.00;40.87
62544;BME280;48597;49.030;1.822;2023-04-20T09:58:54;100808.25;;;19.99;40.93
62544;BME280;48597;49.030;1.822;2023-04-20T10:01:20;100806.97;;;20.01;40.91
62544;BME280;48597;49.030;1.822;2023-04-20T10:03:46;100820.03;;;20.02;40.82
62544;BME280;48597;49.030;1.822;2023-04-20T10:06:23;100821.66;;;20.03;40.82
62544;BME280;48597;49.030;1.822;2023-04-20T10:08:49;100814.31;;;20.02;40.95
62544;BME280;48597;49.030;1.822;2023-04-20T10:11:30;100800.00;;;20.02;40.93
62544;BME280;48597;49.030;1.822;2023-04-20T10:13:57;100793.47;;;20.01;40.88
62544;BME280;48597;49.030;1.822;2023-04-20T10:16:23;100796.34;;;20.01;40.85
62544;BME280;48597;49.030;1.822;2023-04-20T10:18:57;100782.03;;;20.01;40.90
62544;BME280;48597;49.030;1.822;2023-04-20T10:21:23;100783.66;;;20.02;40.83
62544;BME280;48597;49.030;1.822;2023-04-20T10:23:52;100766.47;;;20.02;40.97
62544;BME280;48597;49.030;1.822;2023-04-20T10:26:18;100777.91;;;20.02;40.90
62544;BME280;48597;49.030;1.822;2023-04-20T10:28:43;100770.13;;;20.03;40.88
62544;BME280;48597;49.030;1.822;2023-04-20T10:31:10;100776.66;;;20.03;40.86
62544;BME280;48597;49.030;1.822;2023-04-20T10:33:53;100773.81;;;20.03;40.79
62544;BME280;48597;49.030;1.822;2023-04-20T10:36:30;100769.34;;;20.02;40.83
62544;BME280;48597;49.030;1.822;2023-04-20T10:38:57;100755.84;;;20.03;40.86
62544;BME280;48597;49.030;1.822;2023-04-20T10:41:22;100750.91;;;20.03;40.99
62544;BME280;48597;49.030;1.822;2023-04-20T10:43:49;100757.44;;;20.04;40.88
62544;BME280;48597;49.030;1.822;2023-04-20T10:46:22;100750.91;;;20.03;40.83
62544;BME280;48597;49.030;1.822;2023-04-20T10:51:14;100757.44;;;20.04;40.88
62544;BME280;48597;49.030;1.822;2023-04-20T10:53:40;100750.91;;;20.03;40.67
62544;BME280;48597;49.030;1.822;2023-04-20T10:56:05;100768.88;;;20.04;40.94
62544;BME280;48597;49.030;1.822;2023-04-20T10:58:31;100748.84;;;20.04;40.73
62544;BME280;48597;49.030;1.822;2023-04-20T11:01:01;100742.69;;;20.05;40.88
62544;BME280;48597;49.030;1.822;2023-04-20T11:03:28;100752.53;;;20.04;40.73
62544;BME280;48597;49.030;1.822;2023-04-20T11:05:54;100741.88;;;20.05;40.89
62544;BME280;48597;49.030;1.822;2023-04-20T11:08:21;100754.13;;;20.05;40.92
62544;BME280;48597;49.030;1.822;2023-04-20T11:10:47;100736.97;;;20.05;40.73
62544;BME280;48597;49.030;1.822;2023-04-20T11:13:19;100739.81;;;20.05;40.72
62544;BME280;48597;49.030;1.822;2023-04-20T11:15:47;100735.72;;;20.06;40.81
62544;BME280;48597;49.030;1.822;2023-04-20T11:18:12;100732.03;;;20.06;40.68
62544;BME280;48597;49.030;1.822;2023-04-20T11:20:51;100730.78;;;20.07;40.63
62544;BME280;48597;49.030;1.822;2023-04-20T11:23:21;100736.50;;;20.07;40.65
62544;BME280;48597;49.030;1.822;2023-04-20T11:25:51;100730.00;;;20.06;40.60
62544;BME280;48597;49.030;1.822;2023-04-20T11:28:17;100730.78;;;20.07;40.63
62544;BME280;48597;49.030;1.822;2023-04-20T11:30:42;100720.16;;;20.07;40.73
62544;BME280;48597;49.030;1.822;2023-04-20T11:33:08;100719.34;;;20.07;40.75
62544;BME280;48597;49.030;1.822;2023-04-20T11:35:39;100725.06;;;20.07;40.59
62544;BME280;48597;49.030;1.822;2023-04-20T11:38:06;100727.94;;;20.07;40.58
62544;BME280;48597;49.030;1.822;2023-04-20T11:40:32;100716.47;;;20.07;40.67
62544;BME280;48597;49.030;1.822;2023-04-20T11:42:57;100718.53;;;20.06;40.69
62544;BME280;48597;49.030;1.822;2023-04-20T11:45:24;100719.34;;;20.07;40.60
62544;BME280;48597;49.030;1.822;2023-04-20T11:47:50;100713.63;;;20.07;40.69
62544;BME280;48597;49.030;1.822;2023-04-20T11:50:17;100716.03;;;20.08;40.54
62544;BME280;48597;49.030;1.822;2023-04-20T11:52:42;100701.72;;;20.08;40.63
62544;BME280;48597;49.030;1.822;2023-04-20T11:55:08;100712.38;;;20.08;40.55
62544;BME280;48597;49.030;1.822;2023-04-20T11:57:33;100705.84;;;20.07;40.56
62544;BME280;48597;49.030;1.822;2023-04-20T11:59:59;100698.88;;;20.08;40.61
62544;BME280;48597;49.030;1.822;2023-04-20T12:02:25;100696.00;;;20.08;40.60
62544;BME280;48597;49.030;1.822;2023-04-20T12:04:50;100711.56;;;20.07;40.24
62544;BME280;48597;49.030;1.822;2023-04-20T12:07:16;100704.59;;;20.08;40.51
62544;BME280;48597;49.030;1.822;2023-04-20T12:09:41;100701.72;;;20.08;40.45
62544;BME280;48597;49.030;1.822;2023-04-20T12:12:06;100685.81;;;20.07;40.47
62544;BME280;48597;49.030;1.822;2023-04-20T12:14:35;100681.34;;;20.06;40.47
62544;BME280;48597;49.030;1.822;2023-04-20T12:17:01;100685.81;;;20.07;40.29
62544;BME280;48597;49.030;1.822;2023-04-20T12:19:28;100685.81;;;20.07;40.42
62544;BME280;48597;49.030;1.822;2023-04-20T12:21:55;100694.41;;;20.07;40.43
62544;BME280;48597;49.030;1.822;2023-04-20T12:24:21;100690.72;;;20.07;40.47
62544;BME280;48597;49.030;1.822;2023-04-20T12:26:46;100681.34;;;20.06;40.36
62544;BME280;48597;49.030;1.822;2023-04-20T12:29:12;100681.34;;;20.06;40.52
62544;BME280;48597;49.030;1.822;2023-04-20T12:31:37;100683.75;;;20.08;40.22
62544;BME280;48597;49.030;1.822;2023-04-20T12:34:03;100680.88;;;20.08;40.50
62544;BME280;48597;49.030;1.822;2023-04-20T12:36:28;100667.84;;;20.07;40.48
62544;BME280;48597;49.030;1.822;2023-04-20T12:38:54;100660.06;;;20.07;40.39
62544;BME280;48597;49.030;1.822;2023-04-20T12:41:23;100677.22;;;20.07;40.41
62544;BME280;48597;49.030;1.822;2023-04-20T12:43:49;100674.38;;;20.07;40.52
62544;BME280;48597;49.030;1.822;2023-04-20T12:46:15;100665.78;;;20.07;40.43
62544;BME280;48597;49.030;1.822;2023-04-20T12:48:40;100681.69;;;20.08;40.46